x

West Santa Barbara 38 Nm West Of Santa Barbara, Ca (46054) Wave Buoy

6:50 - Thu 24th Jul 2014 All times are PDT. -7 hours from GMT.

  • Sig Wave height 7.2ft
  • Swell Direction
  • Peak Period 8s
  • Average Period 6s
  • Wind
    25mph, 29mph gusts
  • Sea Temp 56°f
  • Air Temp 61°f
  • Sea Pressure 1011.3mb
  • West Santa Barbara  38 Nm West Of Santa Barbara, Ca
  • West Santa Barbara  38 Nm West Of Santa Barbara, Ca

More Historic Weather Station data

Upgrade to MSW Pro to gain access to the past 30 days of data for over 8000 Wavebouys and Weather Stations around the globe.

Join Pro

Comparision Forecast

View Surf forecast
   
jeu. 07/24 6:50 7ft 8s 6s 25 29 mph 1011.3mb 56f 61f
5:50 6.5ft 7s 6s 27 31 mph 1010.9mb 56f 61f
4:50 6.5ft 7s 5s 27 34 mph 1010.7mb 56f 61f
3:50 7ft 7s 5s 29 34 mph 1011mb 57f 61f
2:50 6.5ft 7s 5s 29 34 mph 1011.3mb 56f 61f
1:50 7ft 7s 5s 29 34 mph 1011.9mb 57f 61f
12:50 7ft 7s 5s 29 36 mph 1012.4mb 57f 62f
mer. 07/23 11:50 7.5ft 7s 5s 29 34 mph 1012.7mb 58f 62f
10:50 7ft 7s 5s 27 31 mph 1013mb 58f 62f
9:50 6.5ft 6s 5s 29 36 mph 1012.8mb 59f 62f
8:50 6ft 6s 5s 27 34 mph 1012.9mb 60f 63f
7:50 5.5ft 6s 5s 25 31 mph 1013mb 60f 64f
6:50 5.5ft 5s 5s 25 31 mph 1013.4mb 60f 64f
5:50 5ft 6s 5s 25 29 mph 1013.6mb 60f 64f
4:50 5.5ft 5s 5s 25 31 mph 1014.2mb 61f 64f
3:50 4.5ft 6s 5s 27 29 mph 1014.4mb 61f 64f
2:50 5ft 6s 5s 27 31 mph 1015.2mb 61f 64f
1:50 4.5ft 5s 5s 25 29 mph 1015.9mb 61f 64f
12:50 4.5ft 5s 5s 25 29 mph 1016.3mb 61f 64f
11:50 4.5ft 5s 5s 22 27 mph 1016.8mb 62f 64f
10:50 4.5ft 5s 5s 22 27 mph 1016.9mb 62f 64f
9:50 4.5ft 5s 5s 22 27 mph 1017mb 62f 64f
8:50 4.5ft 5s 5s 22 25 mph 1017.1mb 62f 63f
7:50 4.5ft 4s 5s 22 27 mph 1016.8mb 62f 63f
6:50 4ft 5s 5s 22 27 mph 1016.2mb 62f 63f
5:50 4.5ft 5s 5s 27 34 mph 1016mb 63f 64f
4:50 4.5ft 4s 5s 25 31 mph 1015.9mb 63f 64f
3:50 4.5ft 11s 5s 25 29 mph 1016.1mb 64f 64f
2:50 3.5ft 10s 5s 25 27 mph 1016.4mb 64f 64f
1:50 3.5ft 4s 4s 25 27 mph 1016.5mb 65f 65f
12:50 4ft 4s 5s 25 29 mph 1016.7mb 65f 65f
mar. 07/22 11:50 4ft 10s 5s 25 29 mph 1017.2mb 65f 65f
10:50 3.5ft 10s 5s 25 27 mph 1017.1mb 65f 65f
9:50 3.5ft 11s 5s 22 27 mph 1017.1mb 65f 65f
8:50 3.5ft 10s 5s 20 25 mph 1016.8mb 65f 66f
7:50 4ft 10s 5s 22 25 mph 1016.6mb 65f 67f
6:50 4ft 10s 5s 20 25 mph 1016.7mb 65f 67f
5:50 3.5ft 9s 5s 22 27 mph 1016.7mb 66f 67f
4:50 3ft 11s 5s 20 25 mph 1017.2mb 66f 66f
3:50 3.5ft 11s 5s 18 22 mph 1017.5mb 66f 66f
2:50 3.5ft 10s 6s 18 20 mph 1018mb 66f 66f
1:50 3ft 10s 5s 18 20 mph 1018.4mb 66f 66f
12:50 3.5ft 12s 6s 18 20 mph 1018.5mb 66f 66f
11:50 4ft 10s 6s 18 22 mph 1018.4mb 66f 65f
10:50 3.5ft 12s 6s 18 20 mph 1018.2mb 66f 65f
9:50 3.5ft 11s 6s 18 20 mph 1018.1mb 66f 65f
8:50 3.5ft 11s 6s 16 18 mph 1017.9mb 66f 65f
7:50 3ft 11s 6s 18 20 mph 1017.3mb 66f 65f
6:50 3.5ft 11s 6s 16 18 mph 1017mb 66f 65f
5:50 3ft 11s 5s 16 20 mph 1016.5mb 66f 65f
4:50 3.5ft 10s 5s 16 20 mph 1016.4mb 67f 65f
3:50 3ft 12s 5s 18 22 mph 1016.4mb 67f 65f
2:50 3ft 12s 5s 20 22 mph 1016.4mb 67f 66f
1:50 3.5ft 11s 5s 18 22 mph 1016.4mb 67f 65f
12:50 3.5ft 11s 5s 18 22 mph 1016.3mb 67f 66f
lun. 07/21 11:50 3ft 12s 5s 16 20 mph 1016.4mb 66f 66f
10:50 3ft 13s 5s 16 18 mph 1016.1mb 67f 66f
9:50 2.5ft 12s 6s 16 20 mph 1015.8mb 67f 66f
8:50 2.5ft 12s 6s 16 18 mph 1015.6mb 67f 67f
7:50 3ft 13s 6s 13 16 mph 1015.8mb 67f 67f
6:50 2.5ft 8s 6s 13 16 mph 1015.9mb 67f 67f
5:50 2.5ft 8s 6s 13 16 mph 1015.9mb 67f 67f
4:50 2.5ft 12s 7s 13 16 mph 1016.7mb 67f 67f
3:50 2.5ft 14s 8s 11 13 mph 1017mb 69f 67f
2:50 2.5ft 12s 8s 11
mph
1017.4mb 69f 68f
1:50 2.5ft 12s 8s 4 7 mph 1017.8mb 69f 68f
12:50 2.5ft 8s 8s 2 4 mph 1018.1mb 70f 68f
11:50 2.5ft 13s 8s  -  2 mph 1018.1mb 69f 68f
10:50 2.5ft 8s 7s 2
mph
1018mb 68f 67f
9:50 2.5ft 12s 8s 2
mph
1017.6mb 67f 67f
8:50 2.5ft 8s 8s 2
mph
1017.2mb 66f 67f
7:50 2.5ft 12s 8s 4
mph
1016.8mb 66f 66f
6:50 2.5ft 13s 8s 4
mph
1016.3mb 66f 66f
5:50 2.5ft 8s 7s 11
mph
1015.5mb 66f 65f
4:50 2.5ft 8s 8s 9 11 mph 1015.3mb 66f 66f
3:50 2.5ft 12s 8s 9
mph
1015.3mb 66f 66f
2:50 2.5ft 8s 7s 9 11 mph 1015.2mb 66f 66f
1:50 3ft 8s 8s 9 11 mph 1015.2mb 66f 66f
12:50 2.5ft 13s 8s 9 11 mph 1015.4mb 66f 66f
dim. 07/20 11:50 2.5ft 13s 7s 9
mph
1015.6mb 67f 66f
10:50 2.5ft 8s 7s 9 11 mph 1015.7mb 67f 66f
9:50 2.5ft 13s 7s 9 11 mph 1015.3mb 67f 66f
8:50 3ft 9s 7s 11
mph
1014.8mb 67f 66f
7:50 3ft 9s 8s 11
mph
1014.5mb 68f 67f
6:50 2.5ft 9s 7s 9 11 mph 1014.4mb 68f 67f
5:50 3ft 9s 8s 9
mph
1014.4mb 68f 67f
4:50 3.5ft 9s 8s 9
mph
1014.7mb 68f 67f
3:50 3ft 8s 8s 9
mph
1015mb 68f 68f
2:50 3ft 9s 8s 7 9 mph 1015.5mb 68f 67f